Ana Sayfa
METAR-TAF:

METAR-TAF

Havaalanları :

Midilli, Yunanistan

Enlem: 39-04N, Boylam: 026-36E, yükseklik: 3 m

Güncel hava durumu gözlemi

Rapor saat 19:50 UTC de 3 saat ve 31 dakika önce yapıldı.
Rüzgar kuzey/kuzeydoğudan 10 kt
Sıcaklık 11°C
Nem 62%
Basınç 1026 hPa
Görüş mesafesi 10 km veya daha fazla
2500 ft yükseklikte az bulutlu

METAR: LGMT 201950Z 02010KT 9999 FEW025 11/04 Q1026

Saat: 02:21 (23:21 UTC)

Tahmin

Rapor saat 20:00 UTC de 3 saat ve 21 dakika önce yapıldı.
Ayın 20'si saat 21 UTC'den ayın 21'si saat 06 UTC'ye kadar geçerli Tahmin
Rüzgar kuzeydan 15 kt
Görüş mesafesi 10 km veya daha fazla
2000 ft yükseklikte az bulutlu

TAF: LGMT 202000Z 2021/2106 36015KT 9999 FEW020

4.000'den fazla havaalanı için hava durumu gözlemleri ve tahminleri (METAR ve TAF raporları).

Kullanılabilir istasyonlar harita üzerinde sarı ve kırmızı noktalarla gösterilir.

İstasyonun adını görmek için fareyi noktanın üzerinde gezdirin.

Sonrasında hava gözlem ve tahminlerini görmek için tıklayın.

Haritayı değiştirmek için: yaklaştırmak için siyah artı işaretli yeşil düğmeye ve uzaklaştırmak için de eksi işaretli düğmeye hızla tıklayın; bitişik haritalar için yeşil okları kullanın.


METAR-TAF: